Altmar, NY

3:04 PM EST on March 06, 2015 (GMT -0500)
Pulaski, NY | Change Station
CLOSE
Current Station
Personal Weather Station
Location: Pulaski, NY
Elevation: 404 ft
Nearby Weather Stations

Elev 404 ft 43.57 °N, 76.13 °W | Updated 31 seconds ago

Clear
Clear
24.4 °F
Feels Like 21 °F
N
3.1
Wind Variable Wind from West
Gusts 3.8 mph

Today
High -- | Low -- °F
--% Chance of Precip.
Yesterday
High -- | Low -- °F
Precip. -- in
6:32 AM 5:58 PM
Full, 99% visible
Pressure 30.43 in
Visibility 10.0 miles
Clouds Clear
Windchill 21 °F
Dew Point 3 °F
Humidity 39%
Rainfall in
Snow Depth Not available.
UV 3 out of 12
Pollen .40 out of 12
Air Quality Not available.
Flu Activity Not available.
METAR KFZY 061954Z AUTO 22010KT 10SM CLR M07/M16 A3039 RMK AO2 UPB34E44 SLP303 P0000 T10671161

More Conditions Fewer Conditions

Pressure 30.43 in
Visibility 10.0 miles
Clouds Clear
Windchill 21 °F
Dew Point 3 °F
Humidity 39%
Rainfall in
Snow Depth Not available.
UV 3 out of 12
Pollen .40 out of 12
Air Quality Not available.
Flu Activity Not available.
METAR KFZY 061954Z AUTO 22010KT 10SM CLR M07/M16 A3039 RMK AO2 UPB34E44 SLP303 P0000 T10671161

More Conditions Fewer Conditions

10-Day Weather Forecast

Almanac

Astronomy

Mar. 06, 2015 Rise Set
Actual Time
Civil Twilight
Nautical Twilight
Astronomical Twilight
Moon
Length of Visible Light
Length of Day
Tomorrow will be .
, % of the Moon is Illuminated

Today's Extremes

State Highs State Lows

Community

WunderPhotos

Upload Photos

1,803,386 photos uploaded!

WunderBlogs® & News

Nearby

Air Quality

  Air Quality AQ Index Pollutant
Not available.

Snow Depth

Station Depth Elevation

Earthquake Activity

City Distance Mag. Time & Date
Minimum magnitude displayed is 2.5.

Coastal Water Temperatures

Place Temperature

Nearby Weather Stations